SAS1556 EHAM-ESSA
Flight info
| Callsign | SAS1556 |
|---|---|
| Flight time | N/A |
| Altitude | 37000 |
| Route | ANDIK N873 HUNQI DCT DOSUR DCT BEVUM DCT MIKNA N851 PELUP Z226 NILUG |
| Aircraft | A320/M-SDE3FGHIJ1RWXYZ/ALB1 |
Departure
| Time | N/A |
|---|---|
| Airport | Amsterdam Airport Schiphol (EHAM) |
Arrival
| Time | 2026-05-06 17:48 |
|---|---|
| Airport | Stockholm-Arlanda Airport (ESSA) |
| Time | Latitude | Longitude | Altitude | Speed | Heading |
|---|---|---|---|---|---|
| 2026-05-06 17:06 | 57.08631 | 14.11618 | 36960 ft | 482 kts | 48° |
| 2026-05-06 17:07 | 57.10827 | 14.16273 | 36962 ft | 482 kts | 48° |
| 2026-05-06 17:07 | 57.15213 | 14.25607 | 36973 ft | 483 kts | 48° |
| 2026-05-06 17:08 | 57.19576 | 14.34920 | 36955 ft | 483 kts | 48° |
| 2026-05-06 17:08 | 57.23964 | 14.44336 | 36937 ft | 483 kts | 49° |
| 2026-05-06 17:09 | 57.28340 | 14.53751 | 36956 ft | 483 kts | 49° |
| 2026-05-06 17:09 | 57.32709 | 14.63177 | 36960 ft | 483 kts | 49° |
| 2026-05-06 17:10 | 57.37072 | 14.72633 | 36979 ft | 483 kts | 49° |
| 2026-05-06 17:10 | 57.41425 | 14.82119 | 36967 ft | 483 kts | 49° |
| 2026-05-06 17:11 | 57.45745 | 14.91587 | 36965 ft | 484 kts | 49° |
| 2026-05-06 17:11 | 57.50092 | 15.01133 | 36964 ft | 484 kts | 49° |
| 2026-05-06 17:12 | 57.54535 | 15.10909 | 36971 ft | 484 kts | 49° |
| 2026-05-06 17:12 | 57.58776 | 15.20301 | 36988 ft | 485 kts | 49° |
| 2026-05-06 17:13 | 57.63085 | 15.29878 | 36957 ft | 485 kts | 49° |
| 2026-05-06 17:13 | 57.67414 | 15.39536 | 36965 ft | 485 kts | 50° |
| 2026-05-06 17:14 | 57.71737 | 15.49230 | 36982 ft | 485 kts | 50° |
| 2026-05-06 17:14 | 57.76053 | 15.58930 | 36989 ft | 485 kts | 50° |
| 2026-05-06 17:15 | 57.80364 | 15.68662 | 36992 ft | 485 kts | 50° |
| 2026-05-06 17:15 | 57.84631 | 15.78346 | 37004 ft | 485 kts | 50° |
| 2026-05-06 17:16 | 57.88924 | 15.88131 | 37002 ft | 485 kts | 50° |
| 2026-05-06 17:16 | 57.93805 | 15.96798 | 37001 ft | 483 kts | 36° |
| 2026-05-06 17:17 | 58.03883 | 16.11700 | 37018 ft | 484 kts | 36° |
| 2026-05-06 17:18 | 58.09135 | 16.19539 | 36976 ft | 485 kts | 37° |
| 2026-05-06 17:18 | 58.14433 | 16.27497 | 36011 ft | 493 kts | 37° |
| 2026-05-06 17:18 | 58.17127 | 16.31553 | 34849 ft | 496 kts | 38° |
| 2026-05-06 17:19 | 58.19823 | 16.35612 | 33816 ft | 493 kts | 38° |
| 2026-05-06 17:19 | 58.22499 | 16.39651 | 32762 ft | 488 kts | 38° |
| 2026-05-06 17:19 | 58.25139 | 16.43635 | 31824 ft | 482 kts | 38° |
| 2026-05-06 17:19 | 58.27649 | 16.47797 | 30890 ft | 477 kts | 46° |
| 2026-05-06 17:20 | 58.29784 | 16.52576 | 29958 ft | 471 kts | 55° |
| 2026-05-06 17:20 | 58.31689 | 16.57476 | 29270 ft | 459 kts | 54° |
| 2026-05-06 17:20 | 58.33551 | 16.62247 | 28948 ft | 441 kts | 54° |
| 2026-05-06 17:20 | 58.35351 | 16.66856 | 28566 ft | 427 kts | 54° |
| 2026-05-06 17:21 | 58.37092 | 16.71321 | 28199 ft | 413 kts | 54° |
| 2026-05-06 17:21 | 58.38774 | 16.75638 | 27840 ft | 400 kts | 54° |
| 2026-05-06 17:21 | 58.40427 | 16.79888 | 27484 ft | 400 kts | 53° |
| 2026-05-06 17:21 | 58.42079 | 16.84148 | 27130 ft | 399 kts | 53° |
| 2026-05-06 17:22 | 58.43723 | 16.88397 | 26770 ft | 397 kts | 53° |
| 2026-05-06 17:22 | 58.45354 | 16.92628 | 26393 ft | 395 kts | 53° |
| 2026-05-06 17:22 | 58.46953 | 16.96781 | 26042 ft | 392 kts | 53° |
| 2026-05-06 17:22 | 58.48569 | 17.00979 | 25676 ft | 392 kts | 52° |
| 2026-05-06 17:23 | 58.50181 | 17.05168 | 25286 ft | 391 kts | 52° |
| 2026-05-06 17:23 | 58.51787 | 17.09354 | 24909 ft | 390 kts | 52° |
| 2026-05-06 17:23 | 58.53384 | 17.13532 | 24512 ft | 388 kts | 52° |
| 2026-05-06 17:23 | 58.54977 | 17.17705 | 24114 ft | 388 kts | 52° |
| 2026-05-06 17:24 | 58.56563 | 17.21868 | 23715 ft | 388 kts | 52° |
| 2026-05-06 17:24 | 58.58153 | 17.26044 | 23265 ft | 387 kts | 52° |
| 2026-05-06 17:24 | 58.59733 | 17.30210 | 22868 ft | 385 kts | 52° |
| 2026-05-06 17:24 | 58.61301 | 17.34349 | 22455 ft | 383 kts | 52° |
| 2026-05-06 17:25 | 58.62861 | 17.38465 | 22050 ft | 381 kts | 52° |
| 2026-05-06 17:25 | 58.64416 | 17.42570 | 21650 ft | 379 kts | 52° |
| 2026-05-06 17:25 | 58.65959 | 17.46654 | 21255 ft | 377 kts | 52° |
| 2026-05-06 17:25 | 58.67472 | 17.50669 | 20843 ft | 375 kts | 52° |
| 2026-05-06 17:26 | 58.68999 | 17.54725 | 20457 ft | 374 kts | 52° |
| 2026-05-06 17:26 | 58.70521 | 17.58776 | 20019 ft | 373 kts | 52° |
| 2026-05-06 17:26 | 58.72036 | 17.62813 | 19618 ft | 372 kts | 52° |
| 2026-05-06 17:26 | 58.73545 | 17.66839 | 19214 ft | 370 kts | 52° |
| 2026-05-06 17:27 | 58.75048 | 17.70862 | 18808 ft | 369 kts | 52° |
| 2026-05-06 17:27 | 58.76537 | 17.74867 | 18400 ft | 368 kts | 53° |
| 2026-05-06 17:27 | 58.78020 | 17.78871 | 17952 ft | 366 kts | 53° |
| 2026-05-06 17:27 | 58.79471 | 17.82791 | 17554 ft | 363 kts | 53° |
| 2026-05-06 17:28 | 58.81056 | 17.86524 | 17141 ft | 357 kts | 42° |
| 2026-05-06 17:28 | 58.82954 | 17.89530 | 16800 ft | 349 kts | 30° |
| 2026-05-06 17:28 | 58.85051 | 17.91741 | 16557 ft | 339 kts | 22° |
| 2026-05-06 17:28 | 58.87156 | 17.93717 | 16296 ft | 335 kts | 22° |
| 2026-05-06 17:29 | 58.89240 | 17.95674 | 16034 ft | 332 kts | 23° |
| 2026-05-06 17:29 | 58.91312 | 17.97620 | 15772 ft | 330 kts | 23° |
| 2026-05-06 17:29 | 58.93367 | 17.99559 | 15521 ft | 328 kts | 23° |
| 2026-05-06 17:29 | 58.95386 | 18.01475 | 15265 ft | 326 kts | 23° |
| 2026-05-06 17:30 | 58.97417 | 18.03409 | 15011 ft | 324 kts | 23° |
| 2026-05-06 17:30 | 58.99435 | 18.05335 | 14756 ft | 322 kts | 23° |
| 2026-05-06 17:30 | 59.01441 | 18.07247 | 14505 ft | 320 kts | 23° |
| 2026-05-06 17:30 | 59.03438 | 18.09153 | 14253 ft | 318 kts | 24° |
| 2026-05-06 17:31 | 59.05462 | 18.11081 | 13996 ft | 335 kts | 24° |
| 2026-05-06 17:31 | 59.07594 | 18.13108 | 13692 ft | 345 kts | 24° |
| 2026-05-06 17:31 | 59.09817 | 18.14809 | 13171 ft | 341 kts | 12° |
| 2026-05-06 17:31 | 59.12137 | 18.15488 | 12660 ft | 335 kts | 1° |
| 2026-05-06 17:32 | 59.14426 | 18.15756 | 12164 ft | 333 kts | 1° |
| 2026-05-06 17:32 | 59.16720 | 18.16023 | 11531 ft | 327 kts | 1° |
| 2026-05-06 17:32 | 59.18982 | 18.16285 | 10768 ft | 323 kts | 1° |
| 2026-05-06 17:32 | 59.21205 | 18.16544 | 9997 ft | 317 kts | 1° |
| 2026-05-06 17:33 | 59.23389 | 18.16801 | 9250 ft | 310 kts | 1° |
| 2026-05-06 17:33 | 59.25464 | 18.17092 | 9034 ft | 288 kts | 2° |
| 2026-05-06 17:33 | 59.27418 | 18.17400 | 8997 ft | 279 kts | 3° |
| 2026-05-06 17:33 | 59.29350 | 18.17714 | 9001 ft | 278 kts | 2° |
| 2026-05-06 17:34 | 59.31229 | 18.18037 | 8555 ft | 273 kts | 3° |
| 2026-05-06 17:34 | 59.33113 | 18.18339 | 7914 ft | 271 kts | 3° |
| 2026-05-06 17:34 | 59.34986 | 18.18595 | 7293 ft | 268 kts | 3° |
| 2026-05-06 17:34 | 59.36822 | 18.18819 | 7021 ft | 260 kts | 3° |
| 2026-05-06 17:35 | 59.38617 | 18.19022 | 6998 ft | 257 kts | 3° |
| 2026-05-06 17:35 | 59.40402 | 18.19218 | 6999 ft | 257 kts | 3° |
| 2026-05-06 17:35 | 59.42188 | 18.19411 | 7004 ft | 258 kts | 3° |
| 2026-05-06 17:36 | 59.45757 | 18.19805 | 7000 ft | 256 kts | 3° |
| 2026-05-06 17:36 | 59.47505 | 18.19998 | 6774 ft | 255 kts | 3° |
| 2026-05-06 17:36 | 59.49270 | 18.20192 | 6470 ft | 254 kts | 2° |
| 2026-05-06 17:36 | 59.51030 | 18.20429 | 6150 ft | 253 kts | 3° |
| 2026-05-06 17:37 | 59.52781 | 18.20676 | 5803 ft | 252 kts | 2° |
| 2026-05-06 17:37 | 59.54526 | 18.20933 | 5490 ft | 251 kts | 3° |
| 2026-05-06 17:37 | 59.56269 | 18.21182 | 5146 ft | 251 kts | 3° |
| 2026-05-06 17:37 | 59.58013 | 18.21420 | 4807 ft | 251 kts | 3° |
| 2026-05-06 17:38 | 59.59755 | 18.21662 | 4469 ft | 251 kts | 3° |
| 2026-05-06 17:38 | 59.61502 | 18.21900 | 4097 ft | 252 kts | 3° |
| 2026-05-06 17:38 | 59.63226 | 18.22126 | 4007 ft | 254 kts | 3° |
| 2026-05-06 17:38 | 59.64996 | 18.22351 | 3864 ft | 254 kts | 3° |
| 2026-05-06 17:39 | 59.66758 | 18.22567 | 3499 ft | 255 kts | 3° |
| 2026-05-06 17:39 | 59.68542 | 18.22785 | 3111 ft | 258 kts | 3° |
| 2026-05-06 17:39 | 59.70339 | 18.22989 | 2752 ft | 259 kts | 3° |
| 2026-05-06 17:39 | 59.72127 | 18.23179 | 2547 ft | 257 kts | 3° |
| 2026-05-06 17:40 | 59.73916 | 18.23363 | 2511 ft | 258 kts | 3° |
| 2026-05-06 17:40 | 59.75711 | 18.23544 | 2513 ft | 259 kts | 3° |
| 2026-05-06 17:40 | 59.77512 | 18.23726 | 2532 ft | 260 kts | 3° |
| 2026-05-06 17:40 | 59.79315 | 18.23895 | 2533 ft | 259 kts | 3° |
| 2026-05-06 17:41 | 59.81088 | 18.23762 | 2532 ft | 258 kts | 345° |
| 2026-05-06 17:41 | 59.82667 | 18.22077 | 2532 ft | 256 kts | 313° |
| 2026-05-06 17:41 | 59.83597 | 18.19189 | 2536 ft | 252 kts | 288° |
| 2026-05-06 17:41 | 59.84146 | 18.15885 | 2518 ft | 252 kts | 283° |
| 2026-05-06 17:42 | 59.84607 | 18.12540 | 2514 ft | 249 kts | 275° |
| 2026-05-06 17:42 | 59.84478 | 18.09190 | 2517 ft | 242 kts | 251° |
| 2026-05-06 17:42 | 59.83803 | 18.06205 | 2515 ft | 230 kts | 233° |
| 2026-05-06 17:42 | 59.82820 | 18.03951 | 2511 ft | 202 kts | 217° |
| 2026-05-06 17:43 | 59.81688 | 18.02446 | 2519 ft | 189 kts | 204° |
| 2026-05-06 17:43 | 59.80477 | 18.01585 | 2513 ft | 183 kts | 191° |
| 2026-05-06 17:43 | 59.79247 | 18.01130 | 2505 ft | 176 kts | 189° |
| 2026-05-06 17:43 | 59.78113 | 18.00713 | 2550 ft | 162 kts | 189° |
| 2026-05-06 17:44 | 59.77034 | 18.00317 | 2516 ft | 156 kts | 189° |
| 2026-05-06 17:44 | 59.75992 | 17.99936 | 2345 ft | 147 kts | 189° |
| 2026-05-06 17:44 | 59.75008 | 17.99576 | 2165 ft | 137 kts | 189° |
| 2026-05-06 17:44 | 59.74102 | 17.99245 | 2009 ft | 129 kts | 189° |
| 2026-05-06 17:45 | 59.73228 | 17.98926 | 1829 ft | 126 kts | 189° |
| 2026-05-06 17:45 | 59.72373 | 17.98614 | 1652 ft | 125 kts | 188° |
| 2026-05-06 17:45 | 59.71532 | 17.98308 | 1478 ft | 124 kts | 188° |
| 2026-05-06 17:45 | 59.70681 | 17.97997 | 1310 ft | 124 kts | 189° |
| 2026-05-06 17:46 | 59.69833 | 17.97688 | 1138 ft | 124 kts | 188° |
| 2026-05-06 17:46 | 59.68990 | 17.97383 | 964 ft | 123 kts | 188° |
| 2026-05-06 17:46 | 59.68146 | 17.97074 | 788 ft | 123 kts | 187° |
| 2026-05-06 17:46 | 59.67306 | 17.96769 | 635 ft | 124 kts | 186° |
| 2026-05-06 17:47 | 59.66450 | 17.96459 | 467 ft | 125 kts | 187° |
| 2026-05-06 17:47 | 59.65605 | 17.96150 | 296 ft | 125 kts | 186° |
| 2026-05-06 17:47 | 59.64754 | 17.95838 | 137 ft | 124 kts | 186° |
| 2026-05-06 17:47 | 59.64002 | 17.95574 | 112 ft | 88 kts | 190° |
| 2026-05-06 17:48 | 59.63574 | 17.95417 | 119 ft | 31 kts | 191° |
| 2026-05-06 17:48 | 59.63416 | 17.95303 | 121 ft | 25 kts | 209° |
| 2026-05-06 17:48 | 59.63290 | 17.95116 | 123 ft | 0 kts | 220° |
| 2026-05-06 17:49 | 59.63288 | 17.95113 | 123 ft | 1 kts | 220° |
| 2026-05-06 17:49 | 59.63265 | 17.95073 | 123 ft | 7 kts | 221° |
| 2026-05-06 17:49 | 59.63246 | 17.94956 | 124 ft | 11 kts | 284° |
| 2026-05-06 17:49 | 59.63329 | 17.94918 | 120 ft | 16 kts | 11° |
| 2026-05-06 17:50 | 59.63462 | 17.94966 | 119 ft | 23 kts | 10° |
| 2026-05-06 17:50 | 59.63625 | 17.95026 | 114 ft | 25 kts | 10° |
| 2026-05-06 17:50 | 59.63798 | 17.95089 | 110 ft | 25 kts | 10° |
| 2026-05-06 17:50 | 59.63960 | 17.95147 | 108 ft | 23 kts | 10° |
| 2026-05-06 17:51 | 59.64123 | 17.95206 | 108 ft | 25 kts | 10° |
| 2026-05-06 17:51 | 59.64300 | 17.95271 | 106 ft | 26 kts | 10° |
| 2026-05-06 17:51 | 59.64467 | 17.95331 | 105 ft | 24 kts | 10° |
| 2026-05-06 17:51 | 59.64634 | 17.95392 | 105 ft | 22 kts | 11° |
| 2026-05-06 17:52 | 59.64791 | 17.95450 | 107 ft | 23 kts | 10° |
| 2026-05-06 17:52 | 59.64952 | 17.95510 | 111 ft | 24 kts | 11° |
| 2026-05-06 17:52 | 59.65110 | 17.95480 | 116 ft | 23 kts | 344° |
| 2026-05-06 17:52 | 59.65264 | 17.95399 | 122 ft | 23 kts | 345° |
| 2026-05-06 17:53 | 59.65418 | 17.95317 | 125 ft | 24 kts | 345° |
| 2026-05-06 17:53 | 59.65588 | 17.95227 | 128 ft | 26 kts | 345° |
| 2026-05-06 17:53 | 59.65726 | 17.95140 | 125 ft | 17 kts | 322° |
| 2026-05-06 17:53 | 59.65733 | 17.94892 | 125 ft | 21 kts | 255° |
| 2026-05-06 17:54 | 59.65695 | 17.94593 | 125 ft | 24 kts | 257° |
| 2026-05-06 17:54 | 59.65672 | 17.94406 | 123 ft | 1 kts | 256° |
| 2026-05-06 17:54 | 59.65672 | 17.94405 | 124 ft | 0 kts | 256° |
| 2026-05-06 17:54 | 59.65664 | 17.94344 | 126 ft | 10 kts | 255° |
| 2026-05-06 17:55 | 59.65640 | 17.94154 | 121 ft | 19 kts | 256° |
| 2026-05-06 17:55 | 59.65603 | 17.93860 | 112 ft | 24 kts | 256° |
| 2026-05-06 17:55 | 59.65567 | 17.93581 | 113 ft | 21 kts | 256° |
| 2026-05-06 17:55 | 59.65534 | 17.93316 | 112 ft | 18 kts | 256° |
| 2026-05-06 17:56 | 59.65466 | 17.93198 | 110 ft | 11 kts | 160° |
| 2026-05-06 17:56 | 59.65405 | 17.93257 | 112 ft | 12 kts | 165° |
| 2026-05-06 17:56 | 59.65345 | 17.93222 | 111 ft | 10 kts | 249° |
| 2026-05-06 17:56 | 59.65336 | 17.93166 | 112 ft | 0 kts | 251° |
| 2026-05-06 17:57 | 59.65334 | 17.93159 | 112 ft | 2 kts | 250° |
| 2026-05-06 17:57 | 59.65331 | 17.93139 | 112 ft | 0 kts | 250° |